Time;durP1;ratioP1;P1;durP2;ratioP2;P2;SDS_P1;SDS_P2;PMS_P1;PMS_P2;Temp;Humidity;BMP_temperature;BMP_pressure;BME280_temperature;BME280_humidity;BME280_pressure;Samples;Min_cycle;Max_cycle;Signal;HPM_P1;HPM_P2
2022/04/11 00:01:04;;;;;;;8.73;3.90;;;;;;;;;;5041666;28;20063;-66
2022/04/11 00:03:32;;;;;;;10.82;3.67;;;;;;;;;;5030305;28;20054;-66
2022/04/11 00:05:58;;;;;;;12.45;4.72;;;;;;;;;;5036667;28;20048;-67
2022/04/11 00:08:24;;;;;;;13.15;3.90;;;;;;;;;;5019597;28;20135;-66
2022/04/11 00:10:50;;;;;;;11.63;3.83;;;;;;;;;;5044251;28;20077;-66
2022/04/11 00:13:16;;;;;;;8.63;3.47;;;;;;;;;;5036446;28;20432;-67
2022/04/11 00:15:42;;;;;;;9.50;3.45;;;;;;;;;;5038492;28;20049;-65
2022/04/11 00:18:08;;;;;;;7.43;3.67;;;;;;;;;;5042481;28;20042;-66
2022/04/11 00:20:34;;;;;;;5.70;3.10;;;;;;;;;;5043544;28;20038;-66
2022/04/11 00:23:00;;;;;;;10.27;3.72;;;;;;;;;;5016073;28;20136;-66
2022/04/11 00:25:26;;;;;;;9.27;3.75;;;;;;;;;;5027872;28;20388;-66
2022/04/11 00:27:53;;;;;;;7.38;3.55;;;;;;;;;;5055458;28;20560;-66
2022/04/11 00:30:19;;;;;;;6.78;3.55;;;;;;;;;;5042002;28;20056;-66
2022/04/11 00:32:45;;;;;;;8.75;3.78;;;;;;;;;;5043476;28;20048;-66
2022/04/11 00:35:11;;;;;;;7.97;3.15;;;;;;;;;;5017317;28;20050;-66
2022/04/11 00:37:37;;;;;;;8.80;3.63;;;;;;;;;;5018308;28;20397;-65
2022/04/11 00:40:07;;;;;;;5.50;3.10;;;;;;;;;;5018725;28;20057;-65
2022/04/11 00:42:33;;;;;;;9.85;3.28;;;;;;;;;;5035817;28;20110;-65
2022/04/11 00:45:00;;;;;;;13.30;3.60;;;;;;;;;;5045874;28;20049;-67
2022/04/11 00:47:26;;;;;;;6.65;3.65;;;;;;;;;;5046611;28;20084;-68
2022/04/11 00:50:04;;;;;;;10.02;3.83;;;;;;;;;;5017408;28;20075;-66
2022/04/11 00:52:31;;;;;;;11.25;4.18;;;;;;;;;;5010666;28;20040;-66
2022/04/11 00:54:58;;;;;;;6.60;3.70;;;;;;;;;;5049776;28;20538;-66
2022/04/11 00:57:24;;;;;;;6.88;3.40;;;;;;;;;;5055059;28;20041;-66
2022/04/11 00:59:50;;;;;;;7.18;3.25;;;;;;;;;;5051913;28;20053;-66
2022/04/11 01:02:16;;;;;;;6.28;3.33;;;;;;;;;;5038974;28;20036;-66
2022/04/11 01:04:42;;;;;;;6.95;3.00;;;;;;;;;;5035415;28;20132;-66
2022/04/11 01:07:08;;;;;;;7.07;3.38;;;;;;;;;;5036897;28;20104;-66
2022/04/11 01:09:34;;;;;;;6.60;3.15;;;;;;;;;;5050459;28;20041;-66
2022/04/11 01:12:01;;;;;;;10.77;3.63;;;;;;;;;;5035630;28;20392;-66
2022/04/11 01:14:27;;;;;;;8.38;3.25;;;;;;;;;;5036402;28;20037;-65
2022/04/11 01:16:53;;;;;;;7.60;3.60;;;;;;;;;;5054126;28;20041;-66
2022/04/11 01:19:20;;;;;;;7.60;2.83;;;;;;;;;;5037775;28;20045;-66
2022/04/11 01:21:49;;;;;;;5.20;3.08;;;;;;;;;;5034188;28;20380;-66
2022/04/11 01:24:18;;;;;;;9.98;3.42;;;;;;;;;;5034455;28;20050;-66
2022/04/11 01:26:45;;;;;;;9.00;3.30;;;;;;;;;;5046609;28;20048;-66
2022/04/11 01:29:12;;;;;;;7.95;3.28;;;;;;;;;;5054741;28;20535;-66
2022/04/11 01:31:38;;;;;;;5.82;2.80;;;;;;;;;;5032777;28;20504;-66
2022/04/11 01:34:04;;;;;;;8.80;2.97;;;;;;;;;;5047359;28;20045;-66
2022/04/11 01:36:29;;;;;;;6.63;3.30;;;;;;;;;;5023260;28;20099;-66
2022/04/11 01:38:55;;;;;;;6.22;2.80;;;;;;;;;;5034715;28;20039;-66
2022/04/11 01:41:22;;;;;;;6.63;2.85;;;;;;;;;;5040954;28;20431;-66
2022/04/11 01:43:48;;;;;;;5.78;3.30;;;;;;;;;;5034488;28;20080;-66
2022/04/11 01:46:14;;;;;;;6.50;3.05;;;;;;;;;;5042090;28;20511;-67
2022/04/11 01:48:40;;;;;;;6.30;2.80;;;;;;;;;;5031571;28;20049;-66
2022/04/11 01:51:06;;;;;;;5.75;2.78;;;;;;;;;;5020430;28;20562;-66
2022/04/11 01:53:32;;;;;;;6.45;2.92;;;;;;;;;;5023069;28;20088;-66
2022/04/11 01:55:58;;;;;;;7.60;2.90;;;;;;;;;;5031251;28;20045;-66
2022/04/11 01:58:24;;;;;;;6.18;3.20;;;;;;;;;;5042205;28;20376;-66
2022/04/11 02:00:50;;;;;;;9.70;3.30;;;;;;;;;;5040334;28;20037;-66
2022/04/11 02:03:16;;;;;;;7.80;3.38;;;;;;;;;;5034078;28;20084;-66
2022/04/11 02:05:42;;;;;;;8.02;3.03;;;;;;;;;;5042295;28;20423;-66
2022/04/11 02:08:10;;;;;;;17.88;5.63;;;;;;;;;;5031873;28;20050;-67
2022/04/11 02:10:36;;;;;;;17.83;5.22;;;;;;;;;;5035910;28;20124;-66
2022/04/11 02:13:03;;;;;;;16.63;5.13;;;;;;;;;;5034065;28;20049;-65
2022/04/11 02:15:29;;;;;;;17.25;3.85;;;;;;;;;;5027159;28;20120;-66
2022/04/11 02:17:55;;;;;;;10.52;4.03;;;;;;;;;;5041176;28;20046;-66
2022/04/11 02:20:22;;;;;;;9.73;4.07;;;;;;;;;;5039632;28;20104;-67
2022/04/11 02:22:49;;;;;;;12.48;4.28;;;;;;;;;;5042425;28;20141;-67
2022/04/11 02:25:15;;;;;;;10.52;3.85;;;;;;;;;;5045492;28;20045;-68
2022/04/11 02:27:42;;;;;;;10.02;3.88;;;;;;;;;;5038162;28;20091;-66
2022/04/11 02:30:08;;;;;;;9.32;3.60;;;;;;;;;;5041953;28;20542;-65
2022/04/11 02:32:34;;;;;;;13.20;3.67;;;;;;;;;;5043030;28;20052;-65
2022/04/11 02:35:00;;;;;;;5.97;3.17;;;;;;;;;;5038433;28;20048;-65
2022/04/11 02:37:26;;;;;;;9.18;4.00;;;;;;;;;;5039562;28;20404;-66
2022/04/11 02:39:52;;;;;;;7.65;3.40;;;;;;;;;;5015841;28;20655;-66
2022/04/11 02:42:22;;;;;;;6.45;3.00;;;;;;;;;;5024766;28;20128;-65
2022/04/11 02:44:48;;;;;;;5.75;3.25;;;;;;;;;;5046129;28;20041;-66
2022/04/11 02:47:14;;;;;;;9.75;3.63;;;;;;;;;;5033821;28;20048;-66
2022/04/11 02:49:40;;;;;;;10.60;4.45;;;;;;;;;;5035304;28;20379;-66
2022/04/11 02:52:06;;;;;;;10.00;3.72;;;;;;;;;;5048899;28;20045;-65
2022/04/11 02:54:32;;;;;;;12.57;3.35;;;;;;;;;;5034746;28;20044;-66
2022/04/11 02:56:58;;;;;;;10.55;3.78;;;;;;;;;;5031334;28;20496;-65
2022/04/11 02:59:24;;;;;;;5.43;3.00;;;;;;;;;;5042227;28;20049;-66
2022/04/11 03:01:50;;;;;;;7.72;3.50;;;;;;;;;;5019048;28;20112;-66
2022/04/11 03:04:19;;;;;;;10.30;3.53;;;;;;;;;;5032719;28;20473;-67
2022/04/11 03:06:45;;;;;;;;;;;;;;;;;;5049398;28;20051;-67
2022/04/11 03:09:11;;;;;;;8.15;3.45;;;;;;;;;;5053064;28;20000;-66
2022/04/11 03:11:37;;;;;;;9.80;3.38;;;;;;;;;;5033730;28;20049;-66
2022/04/11 03:14:03;;;;;;;9.52;3.50;;;;;;;;;;5048791;28;20040;-66
2022/04/11 03:16:29;;;;;;;10.65;3.80;;;;;;;;;;5050726;28;20051;-67
2022/04/11 03:18:55;;;;;;;15.20;3.55;;;;;;;;;;5032660;28;20419;-67
2022/04/11 03:21:21;;;;;;;9.07;4.00;;;;;;;;;;5033119;28;20088;-66
2022/04/11 03:23:47;;;;;;;19.85;6.28;;;;;;;;;;5050368;28;20488;-66
2022/04/11 03:26:12;;;;;;;9.18;3.53;;;;;;;;;;5037246;28;20045;-66
2022/04/11 03:28:38;;;;;;;7.60;3.25;;;;;;;;;;5037880;28;20056;-65
2022/04/11 03:31:04;;;;;;;8.18;3.70;;;;;;;;;;5051388;28;20057;-65
2022/04/11 03:33:30;;;;;;;12.48;3.65;;;;;;;;;;5047780;28;20045;-66
2022/04/11 03:35:57;;;;;;;10.85;3.90;;;;;;;;;;5032350;28;20496;-67
2022/04/11 03:38:23;;;;;;;6.05;4.05;;;;;;;;;;5032540;28;20046;-67
2022/04/11 03:40:49;;;;;;;10.93;3.80;;;;;;;;;;5040913;28;20069;-66
2022/04/11 03:43:15;;;;;;;12.18;4.20;;;;;;;;;;5035475;28;20080;-66
2022/04/11 03:45:41;;;;;;;7.18;3.33;;;;;;;;;;5038116;28;20120;-66
2022/04/11 03:48:07;;;;;;;8.63;4.03;;;;;;;;;;5032638;28;20041;-66
2022/04/11 03:50:33;;;;;;;18.83;4.72;;;;;;;;;;5034335;28;20485;-66
2022/04/11 03:52:59;;;;;;;17.17;5.40;;;;;;;;;;5032630;28;20076;-67
2022/04/11 03:55:25;;;;;;;15.55;5.47;;;;;;;;;;5044571;28;20053;-67
2022/04/11 03:57:51;;;;;;;14.85;4.68;;;;;;;;;;5036211;28;20041;-66
2022/04/11 04:00:17;;;;;;;16.27;5.88;;;;;;;;;;5013787;28;20049;-65
2022/04/11 04:02:46;;;;;;;15.68;4.90;;;;;;;;;;5032638;28;20145;-66
2022/04/11 04:05:11;;;;;;;15.93;4.80;;;;;;;;;;5032860;28;20038;-66
2022/04/11 04:07:37;;;;;;;14.38;4.60;;;;;;;;;;5032806;28;20041;-65
2022/04/11 04:10:04;;;;;;;24.27;5.82;;;;;;;;;;5016405;28;20133;-66
2022/04/11 04:12:31;;;;;;;12.50;4.97;;;;;;;;;;5032496;28;20053;-66
2022/04/11 04:14:56;;;;;;;14.32;4.63;;;;;;;;;;5032427;28;20053;-66
2022/04/11 04:17:22;;;;;;;21.60;5.35;;;;;;;;;;5025337;28;20178;-66
2022/04/11 04:19:49;;;;;;;36.35;7.97;;;;;;;;;;5034590;28;20503;-66
2022/04/11 04:22:15;;;;;;;31.15;7.53;;;;;;;;;;5030303;28;20079;-66
2022/04/11 04:24:41;;;;;;;11.90;4.55;;;;;;;;;;5041698;28;20630;-66
2022/04/11 04:27:07;;;;;;;21.50;5.40;;;;;;;;;;5053123;28;20140;-65
2022/04/11 04:29:34;;;;;;;94.07;15.55;;;;;;;;;;5051554;28;20053;-66
2022/04/11 04:32:00;;;;;;;13.07;5.10;;;;;;;;;;5045349;28;20055;-66
2022/04/11 04:34:29;;;;;;;55.17;11.75;;;;;;;;;;5048701;28;20530;-67
2022/04/11 04:36:55;;;;;;;56.45;12.88;;;;;;;;;;5056043;28;20550;-65
2022/04/11 04:39:21;;;;;;;78.40;17.70;;;;;;;;;;5021120;28;20158;-66
2022/04/11 04:41:47;;;;;;;99.80;19.75;;;;;;;;;;5029210;28;20045;-66
2022/04/11 04:44:13;;;;;;;71.85;19.45;;;;;;;;;;5039304;28;20403;-66
2022/04/11 04:46:39;;;;;;;85.88;20.67;;;;;;;;;;5036447;28;20037;-66
2022/04/11 04:49:05;;;;;;;60.58;18.08;;;;;;;;;;5035150;28;20176;-67
2022/04/11 04:51:31;;;;;;;79.45;21.05;;;;;;;;;;5040940;28;20087;-66
2022/04/11 04:53:57;;;;;;;24.30;10.35;;;;;;;;;;5048340;28;20052;-66
2022/04/11 04:56:23;;;;;;;66.65;18.00;;;;;;;;;;5047480;28;20045;-67
2022/04/11 04:58:50;;;;;;;86.50;20.25;;;;;;;;;;5036453;28;20048;-67
2022/04/11 05:01:16;;;;;;;87.63;21.60;;;;;;;;;;5036067;28;20103;-67
2022/04/11 05:03:42;;;;;;;108.65;23.98;;;;;;;;;;5041602;28;20401;-66
2022/04/11 05:06:08;;;;;;;100.90;24.00;;;;;;;;;;5042092;28;20654;-67
2022/04/11 05:08:34;;;;;;;91.05;21.50;;;;;;;;;;5037773;28;20072;-66
2022/04/11 05:11:01;;;;;;;105.88;25.10;;;;;;;;;;5048325;28;20358;-67
2022/04/11 05:13:27;;;;;;;121.50;26.67;;;;;;;;;;5034385;28;20050;-67
2022/04/11 05:15:53;;;;;;;29.52;9.02;;;;;;;;;;5038873;28;20045;-66
2022/04/11 05:18:19;;;;;;;39.13;11.68;;;;;;;;;;5035577;28;20040;-67
2022/04/11 05:20:45;;;;;;;14.65;6.18;;;;;;;;;;5048568;28;21056;-66
2022/04/11 05:23:11;;;;;;;27.40;8.80;;;;;;;;;;5055040;28;20123;-67
2022/04/11 05:25:37;;;;;;;36.00;9.90;;;;;;;;;;5047780;28;20045;-67
2022/04/11 05:28:03;;;;;;;31.05;8.90;;;;;;;;;;5052207;28;20703;-67
2022/04/11 05:30:35;;;;;;;90.63;19.33;;;;;;;;;;5036047;28;20520;-67
2022/04/11 05:33:01;;;;;;;15.88;6.03;;;;;;;;;;5041156;28;20045;-67
2022/04/11 05:35:27;;;;;;;27.38;9.00;;;;;;;;;;5031914;28;20473;-67
2022/04/11 05:37:53;;;;;;;12.32;6.47;;;;;;;;;;5054611;28;20048;-67
2022/04/11 05:40:19;;;;;;;13.77;6.13;;;;;;;;;;5035745;28;20051;-67
2022/04/11 05:42:45;;;;;;;58.25;15.98;;;;;;;;;;5036354;28;20056;-69
2022/04/11 05:45:12;;;;;;;23.55;8.65;;;;;;;;;;5042541;28;20524;-67
2022/04/11 05:47:38;;;;;;;35.67;11.05;;;;;;;;;;5034513;28;20046;-69
2022/04/11 05:50:04;;;;;;;74.38;19.27;;;;;;;;;;5016919;28;20430;-69
2022/04/11 05:52:30;;;;;;;67.63;19.00;;;;;;;;;;5034552;28;20561;-67
2022/04/11 05:54:56;;;;;;;91.68;21.02;;;;;;;;;;5041182;28;20124;-68
2022/04/11 05:57:22;;;;;;;80.03;20.83;;;;;;;;;;5041860;28;20092;-70
2022/04/11 05:59:49;;;;;;;71.72;19.17;;;;;;;;;;5029694;28;20049;-68
2022/04/11 06:02:15;;;;;;;62.42;18.00;;;;;;;;;;5049718;28;20048;-67
2022/04/11 06:04:41;;;;;;;84.50;22.08;;;;;;;;;;5040092;28;20095;-67
2022/04/11 06:07:08;;;;;;;18.35;8.27;;;;;;;;;;5040173;28;20123;-68
2022/04/11 06:09:34;;;;;;;59.67;16.20;;;;;;;;;;5035584;28;20112;-68
2022/04/11 06:12:00;;;;;;;27.42;8.40;;;;;;;;;;5032999;28;20153;-67
2022/04/11 06:14:26;;;;;;;22.40;8.10;;;;;;;;;;5038751;28;20049;-70
2022/04/11 06:16:52;;;;;;;69.30;18.13;;;;;;;;;;5036385;28;20499;-68
2022/04/11 06:19:18;;;;;;;25.25;9.30;;;;;;;;;;5032330;28;20123;-67
2022/04/11 06:21:44;;;;;;;48.97;14.23;;;;;;;;;;5049418;28;20098;-67
2022/04/11 06:24:10;;;;;;;26.58;9.38;;;;;;;;;;5048673;28;20051;-70
2022/04/11 06:26:36;;;;;;;30.88;10.50;;;;;;;;;;5048915;28;20041;-68
2022/04/11 06:29:02;;;;;;;28.48;9.52;;;;;;;;;;5053343;28;20060;-68
2022/04/11 06:31:28;;;;;;;27.40;9.95;;;;;;;;;;5049111;28;20044;-68
2022/04/11 06:33:54;;;;;;;23.73;9.85;;;;;;;;;;5019641;28;20046;-68
2022/04/11 06:36:20;;;;;;;17.83;8.65;;;;;;;;;;5039247;28;20042;-68
2022/04/11 06:38:46;;;;;;;17.13;7.63;;;;;;;;;;5049890;28;20076;-68
2022/04/11 06:41:12;;;;;;;24.60;10.00;;;;;;;;;;5050864;28;20045;-67
2022/04/11 06:43:38;;;;;;;15.30;7.53;;;;;;;;;;5052020;28;20361;-67
2022/04/11 06:46:04;;;;;;;36.15;12.05;;;;;;;;;;5041634;28;20037;-66
2022/04/11 06:48:30;;;;;;;16.70;8.25;;;;;;;;;;5040250;28;20051;-66
2022/04/11 06:50:57;;;;;;;28.58;9.98;;;;;;;;;;5030316;28;20049;-66
2022/04/11 06:53:23;;;;;;;23.40;9.20;;;;;;;;;;5011337;28;20045;-66
2022/04/11 06:55:49;;;;;;;30.48;10.52;;;;;;;;;;5033398;28;20099;-64
2022/04/11 06:58:18;;;;;;;20.25;8.50;;;;;;;;;;5040714;28;20059;-66
2022/04/11 07:00:44;;;;;;;;;;;;;;;;;;5025041;28;20056;-67
2022/04/11 07:03:10;;;;;;;17.77;7.75;;;;;;;;;;5033240;28;20304;-66
2022/04/11 07:05:36;;;;;;;22.80;9.00;;;;;;;;;;5014779;28;20477;-66
2022/04/11 07:08:03;;;;;;;14.48;7.85;;;;;;;;;;5015175;28;20045;-66
2022/04/11 07:10:29;;;;;;;19.35;8.48;;;;;;;;;;5042099;28;20056;-66
2022/04/11 07:12:55;;;;;;;28.80;9.10;;;;;;;;;;5044249;28;20051;-67
2022/04/11 07:15:21;;;;;;;16.13;8.60;;;;;;;;;;5037168;28;20041;-66
2022/04/11 07:17:47;;;;;;;17.40;8.43;;;;;;;;;;5033212;28;20077;-67
2022/04/11 07:20:14;;;;;;;17.70;8.85;;;;;;;;;;5034744;28;20045;-66
2022/04/11 07:22:40;;;;;;;22.80;9.57;;;;;;;;;;5026293;28;20059;-67
2022/04/11 07:25:06;;;;;;;15.65;8.10;;;;;;;;;;5043788;28;20111;-67
2022/04/11 07:27:32;;;;;;;12.52;7.68;;;;;;;;;;5027179;28;20076;-67
2022/04/11 07:29:58;;;;;;;15.00;7.63;;;;;;;;;;5043298;28;20045;-66
2022/04/11 07:32:24;;;;;;;31.48;9.52;;;;;;;;;;5043417;28;20070;-68
2022/04/11 07:34:50;;;;;;;12.50;6.55;;;;;;;;;;5043336;28;20073;-66
2022/04/11 07:37:16;;;;;;;15.98;7.63;;;;;;;;;;5043834;28;20048;-67
2022/04/11 07:39:43;;;;;;;25.20;8.82;;;;;;;;;;5049759;28;20052;-66
2022/04/11 07:42:09;;;;;;;8.63;6.18;;;;;;;;;;5047205;28;20049;-67
2022/04/11 07:44:35;;;;;;;20.42;7.50;;;;;;;;;;5040545;28;20033;-67
2022/04/11 07:47:01;;;;;;;25.92;9.52;;;;;;;;;;5044689;28;20175;-67
2022/04/11 07:49:27;;;;;;;34.55;11.98;;;;;;;;;;5045071;28;20051;-66
2022/04/11 07:51:55;;;;;;;21.08;9.35;;;;;;;;;;5028922;28;20060;-66
2022/04/11 07:54:24;;;;;;;32.03;11.35;;;;;;;;;;5046338;28;20136;-67
2022/04/11 07:56:50;;;;;;;26.02;9.32;;;;;;;;;;5045806;28;20072;-66
2022/04/11 07:59:16;;;;;;;33.17;10.93;;;;;;;;;;5046520;28;20496;-67
2022/04/11 08:01:42;;;;;;;48.85;13.63;;;;;;;;;;5045713;28;20045;-66
2022/04/11 08:04:08;;;;;;;25.80;9.38;;;;;;;;;;5033031;28;20058;-67
2022/04/11 08:06:34;;;;;;;29.58;9.88;;;;;;;;;;5035791;28;20041;-66
2022/04/11 08:09:00;;;;;;;18.30;8.13;;;;;;;;;;5049715;28;20121;-66
2022/04/11 08:11:26;;;;;;;28.38;9.93;;;;;;;;;;5052097;28;20049;-66
2022/04/11 08:13:52;;;;;;;13.90;7.60;;;;;;;;;;5048903;28;20136;-67
2022/04/11 08:16:18;;;;;;;18.30;7.60;;;;;;;;;;5047116;28;20049;-65
2022/04/11 08:18:44;;;;;;;21.63;8.93;;;;;;;;;;5049227;28;20041;-66
2022/04/11 08:21:10;;;;;;;15.77;7.47;;;;;;;;;;5048486;28;20077;-65
2022/04/11 08:23:36;;;;;;;16.15;7.53;;;;;;;;;;5028783;28;20395;-67
2022/04/11 08:26:02;;;;;;;19.02;8.40;;;;;;;;;;5049565;28;20084;-66
2022/04/11 08:28:28;;;;;;;15.43;7.53;;;;;;;;;;5014160;28;20535;-66
2022/04/11 08:30:54;;;;;;;24.17;9.02;;;;;;;;;;5046347;28;20136;-66
2022/04/11 08:33:20;;;;;;;15.75;6.65;;;;;;;;;;5047952;28;20052;-66
2022/04/11 08:35:46;;;;;;;25.17;8.25;;;;;;;;;;5046968;28;20045;-67
2022/04/11 08:38:12;;;;;;;13.43;6.45;;;;;;;;;;5046919;28;20155;-66
2022/04/11 08:40:38;;;;;;;16.60;6.82;;;;;;;;;;5031490;28;20062;-67
2022/04/11 08:43:05;;;;;;;49.40;11.30;;;;;;;;;;5048260;28;20075;-66
2022/04/11 08:45:31;;;;;;;66.28;16.70;;;;;;;;;;5049243;28;20036;-67
2022/04/11 08:47:58;;;;;;;17.13;6.55;;;;;;;;;;5046679;28;20044;-68
2022/04/11 08:50:24;;;;;;;12.70;6.15;;;;;;;;;;5048918;28;20037;-66
2022/04/11 08:52:51;;;;;;;15.68;5.95;;;;;;;;;;5036259;28;20041;-68
2022/04/11 08:55:17;;;;;;;19.17;6.88;;;;;;;;;;5048376;28;20048;-66
2022/04/11 08:57:43;;;;;;;61.80;13.43;;;;;;;;;;5049348;28;20051;-67
2022/04/11 09:00:11;;;;;;;26.83;7.00;;;;;;;;;;5031372;28;20049;-67
2022/04/11 09:02:38;;;;;;;9.00;3.88;;;;;;;;;;5049476;28;20052;-68
2022/04/11 09:05:05;;;;;;;45.30;10.60;;;;;;;;;;5044984;28;20042;-67
2022/04/11 09:07:50;;;;;;;14.38;5.30;;;;;;;;;;5050134;28;20056;-68
2022/04/11 09:10:23;;;;;;;10.07;3.85;;;;;;;;;;5048834;28;20126;-68
2022/04/11 09:12:53;;;;;;;8.45;3.53;;;;;;;;;;5048028;28;20073;-66
2022/04/11 09:15:20;;;;;;;16.10;5.07;;;;;;;;;;5050189;28;20056;-67
2022/04/11 09:17:46;;;;;;;19.33;5.70;;;;;;;;;;5035064;28;20148;-68
2022/04/11 09:20:14;;;;;;;10.20;4.05;;;;;;;;;;5046238;28;20049;-68
2022/04/11 09:22:40;;;;;;;16.98;5.43;;;;;;;;;;5029567;28;20045;-68
2022/04/11 09:25:07;;;;;;;28.92;7.30;;;;;;;;;;5046690;28;20484;-67
2022/04/11 09:27:33;;;;;;;11.43;4.50;;;;;;;;;;5047599;28;20108;-68
2022/04/11 09:29:59;;;;;;;9.40;4.30;;;;;;;;;;5044871;28;20057;-67
2022/04/11 09:32:25;;;;;;;14.75;5.32;;;;;;;;;;5034247;28;20041;-67
2022/04/11 09:34:55;;;;;;;19.38;6.40;;;;;;;;;;5046675;28;20046;-68
2022/04/11 09:37:21;;;;;;;21.27;6.70;;;;;;;;;;5030579;28;20045;-68
2022/04/11 09:39:54;;;;;;;15.10;5.22;;;;;;;;;;5044327;28;20045;-68
2022/04/11 09:42:32;;;;;;;11.25;4.50;;;;;;;;;;5048910;28;20771;-68
2022/04/11 09:45:00;;;;;;;9.05;4.53;;;;;;;;;;5034627;28;20049;-68
2022/04/11 09:47:25;;;;;;;15.60;4.22;;;;;;;;;;5046474;28;20493;-68
2022/04/11 09:49:52;;;;;;;15.20;5.32;;;;;;;;;;5047578;28;20056;-68
2022/04/11 09:52:19;;;;;;;25.10;7.70;;;;;;;;;;5029329;28;20045;-68
2022/04/11 09:54:52;;;;;;;35.35;9.90;;;;;;;;;;5027182;28;20103;-69
2022/04/11 09:57:18;;;;;;;18.55;6.10;;;;;;;;;;5036560;28;20049;-68
2022/04/11 09:59:45;;;;;;;15.70;5.63;;;;;;;;;;5038659;28;20037;-68
2022/04/11 10:02:17;;;;;;;10.98;4.95;;;;;;;;;;5043175;28;20080;-68
2022/04/11 10:04:43;;;;;;;8.50;4.03;;;;;;;;;;5043944;28;20054;-66
2022/04/11 10:07:10;;;;;;;15.32;5.45;;;;;;;;;;5047379;28;20059;-68
2022/04/11 10:09:39;;;;;;;24.38;7.10;;;;;;;;;;5034709;28;20053;-68
2022/04/11 10:12:05;;;;;;;;;;;;;;;;;;5035996;28;20128;-69
2022/04/11 10:14:31;;;;;;;31.05;8.98;;;;;;;;;;5030948;28;20427;-67
2022/04/11 10:17:02;;;;;;;21.85;7.50;;;;;;;;;;5026866;28;20377;-68
2022/04/11 10:19:33;;;;;;;11.30;5.82;;;;;;;;;;5044403;28;20487;-67
2022/04/11 10:22:03;;;;;;;14.48;5.68;;;;;;;;;;5049546;28;20057;-67
2022/04/11 10:24:33;;;;;;;43.83;10.85;;;;;;;;;;5046587;28;20038;-67
2022/04/11 10:27:17;;;;;;;14.55;5.60;;;;;;;;;;5047500;28;20132;-68
2022/04/11 10:29:43;;;;;;;17.38;7.35;;;;;;;;;;5034822;28;20119;-69
2022/04/11 10:32:11;;;;;;;21.27;8.90;;;;;;;;;;5041498;28;20507;-68
2022/04/11 10:34:47;;;;;;;46.22;13.32;;;;;;;;;;5043449;28;20179;-68
2022/04/11 10:37:13;;;;;;;11.52;6.47;;;;;;;;;;5050351;28;20124;-67
2022/04/11 10:39:39;;;;;;;10.95;5.85;;;;;;;;;;5045932;28;20168;-68
2022/04/11 10:42:12;;;;;;;16.67;7.40;;;;;;;;;;5047670;28;20040;-67
2022/04/11 10:44:45;;;;;;;14.95;6.90;;;;;;;;;;5044064;28;20053;-68
2022/04/11 10:47:11;;;;;;;21.10;7.68;;;;;;;;;;5043517;28;20063;-67
2022/04/11 10:49:55;;;;;;;18.33;8.23;;;;;;;;;;5048525;28;20144;-67
2022/04/11 10:52:34;;;;;;;12.23;6.13;;;;;;;;;;5047726;28;20438;-67
2022/04/11 10:55:12;;;;;;;22.08;9.00;;;;;;;;;;5044403;28;20085;-66
2022/04/11 10:57:41;;;;;;;20.67;8.07;;;;;;;;;;5015677;28;20046;-67
2022/04/11 11:00:10;;;;;;;14.25;6.80;;;;;;;;;;5044221;28;20300;-68
2022/04/11 11:02:48;;;;;;;11.65;7.00;;;;;;;;;;5043849;28;20044;-68
2022/04/11 11:05:27;;;;;;;10.02;6.20;;;;;;;;;;5044051;28;20503;-69
2022/04/11 11:08:12;;;;;;;19.58;7.65;;;;;;;;;;5032702;28;20046;-67
2022/04/11 11:10:57;;;;;;;13.30;7.60;;;;;;;;;;5045618;28;20159;-67
2022/04/11 11:13:31;;;;;;;17.77;7.25;;;;;;;;;;5048861;28;20079;-67
2022/04/11 11:15:58;;;;;;;13.25;7.10;;;;;;;;;;5013946;28;20052;-66
2022/04/11 11:18:24;;;;;;;9.40;6.32;;;;;;;;;;5042046;28;20103;-67
2022/04/11 11:20:54;;;;;;;16.45;7.78;;;;;;;;;;5040740;28;20120;-67
2022/04/11 11:23:23;;;;;;;13.88;7.10;;;;;;;;;;5025316;28;20400;-66
2022/04/11 11:25:50;;;;;;;16.27;8.10;;;;;;;;;;5033977;28;20395;-67
2022/04/11 11:28:16;;;;;;;38.70;13.57;;;;;;;;;;5031640;28;20054;-67
2022/04/11 11:30:42;;;;;;;43.10;14.05;;;;;;;;;;5032983;28;20048;-65
2022/04/11 11:33:09;;;;;;;10.88;6.63;;;;;;;;;;5024939;28;20045;-65
2022/04/11 11:35:44;;;;;;;17.80;7.75;;;;;;;;;;5033115;28;20056;-67
2022/04/11 11:38:10;;;;;;;18.73;8.38;;;;;;;;;;5037287;28;20040;-69
2022/04/11 11:40:41;;;;;;;12.52;6.88;;;;;;;;;;5035013;28;21253;-67
2022/04/11 11:43:12;;;;;;;15.88;7.32;;;;;;;;;;5033633;28;20049;-68
2022/04/11 11:45:40;;;;;;;11.02;6.55;;;;;;;;;;5038184;28;20068;-67
2022/04/11 11:48:22;;;;;;;11.32;8.05;;;;;;;;;;5044372;28;20045;-68
2022/04/11 11:50:49;;;;;;;22.33;10.05;;;;;;;;;;5047993;28;20045;-66
2022/04/11 11:53:15;;;;;;;17.67;9.13;;;;;;;;;;5037983;28;20128;-68
2022/04/11 11:55:54;;;;;;;9.15;7.10;;;;;;;;;;5036000;28;20388;-68
2022/04/11 11:58:20;;;;;;;18.13;8.68;;;;;;;;;;5037509;28;20444;-69
2022/04/11 12:00:49;;;;;;;10.75;7.50;;;;;;;;;;5037239;28;20084;-69
2022/04/11 12:06:01;;;;;;;8.23;6.65;;;;;;;;;;5033582;28;20488;-68
2022/04/11 12:08:32;;;;;;;12.68;7.93;;;;;;;;;;5056738;28;20120;-69
2022/04/11 12:10:59;;;;;;;8.75;6.95;;;;;;;;;;5037885;28;20138;-69
2022/04/11 12:13:29;;;;;;;11.95;7.53;;;;;;;;;;5054342;28;20041;-69
2022/04/11 12:16:07;;;;;;;12.13;8.13;;;;;;;;;;5050386;28;20132;-69
2022/04/11 12:18:47;;;;;;;10.18;6.85;;;;;;;;;;5036581;28;20049;-68
2022/04/11 12:21:13;;;;;;;17.70;8.57;;;;;;;;;;5035568;28;20113;-68
2022/04/11 12:23:46;;;;;;;8.63;6.80;;;;;;;;;;5036815;28;20041;-68
2022/04/11 12:26:12;;;;;;;12.88;7.00;;;;;;;;;;5044191;28;20048;-69
2022/04/11 12:28:39;;;;;;;10.15;7.07;;;;;;;;;;5036770;28;20416;-69
2022/04/11 12:31:15;;;;;;;11.25;7.43;;;;;;;;;;5052982;28;20146;-68
2022/04/11 12:33:44;;;;;;;10.05;7.45;;;;;;;;;;5044102;28;20053;-69
2022/04/11 12:36:12;;;;;;;12.50;7.95;;;;;;;;;;5012738;28;20462;-69
2022/04/11 12:38:42;;;;;;;11.52;8.25;;;;;;;;;;5035403;28;20480;-69
2022/04/11 12:41:22;;;;;;;9.85;8.05;;;;;;;;;;5030456;28;20094;-69
2022/04/11 12:44:07;;;;;;;12.68;7.78;;;;;;;;;;5036098;28;20044;-69
2022/04/11 12:46:34;;;;;;;9.90;7.57;;;;;;;;;;5051583;28;20067;-68
2022/04/11 12:49:01;;;;;;;7.55;6.82;;;;;;;;;;5052308;28;20111;-69
2022/04/11 12:51:28;;;;;;;10.57;7.40;;;;;;;;;;5044227;28;20111;-66
2022/04/11 12:54:01;;;;;;;9.10;6.95;;;;;;;;;;5044332;28;20072;-68
2022/04/11 12:56:37;;;;;;;11.48;7.65;;;;;;;;;;5037060;28;20056;-70
2022/04/11 12:59:03;;;;;;;11.20;7.80;;;;;;;;;;5048211;28;20052;-70
2022/04/11 13:01:47;;;;;;;13.98;7.55;;;;;;;;;;5032675;28;20148;-69
2022/04/11 13:04:13;;;;;;;10.07;7.22;;;;;;;;;;5053659;28;20462;-69
2022/04/11 13:06:39;;;;;;;11.48;6.68;;;;;;;;;;5036781;28;20049;-68
2022/04/11 13:09:05;;;;;;;11.02;7.00;;;;;;;;;;5055645;28;20396;-67
2022/04/11 13:11:31;;;;;;;19.17;9.10;;;;;;;;;;5050824;28;20041;-66
2022/04/11 13:13:57;;;;;;;9.52;6.50;;;;;;;;;;5054514;28;20040;-69
2022/04/11 13:19:08;;;;;;;11.63;8.63;;;;;;;;;;5055449;28;20101;-68
2022/04/11 13:21:34;;;;;;;14.55;8.57;;;;;;;;;;5049581;28;20048;-67
2022/04/11 13:24:00;;;;;;;12.90;8.25;;;;;;;;;;5054181;28;20045;-68
2022/04/11 13:26:25;;;;;;;13.68;8.35;;;;;;;;;;5036548;28;20384;-68
2022/04/11 13:28:53;;;;;;;19.13;9.80;;;;;;;;;;5043785;28;20057;-68
2022/04/11 13:31:19;;;;;;;12.93;8.00;;;;;;;;;;5044507;28;20045;-68
2022/04/11 13:33:45;;;;;;;10.65;8.20;;;;;;;;;;5036120;28;20052;-68
2022/04/11 13:36:11;;;;;;;12.98;8.52;;;;;;;;;;5049026;28;20052;-68
2022/04/11 13:38:37;;;;;;;20.02;10.85;;;;;;;;;;5035082;28;20377;-68
2022/04/11 13:41:03;;;;;;;12.88;7.90;;;;;;;;;;5034699;28;20073;-68
2022/04/11 13:43:29;;;;;;;16.13;8.70;;;;;;;;;;5046667;28;20150;-67
2022/04/11 13:45:55;;;;;;;14.30;8.60;;;;;;;;;;5046356;28;20090;-67
2022/04/11 13:48:22;;;;;;;10.93;7.82;;;;;;;;;;5017764;28;20042;-68
2022/04/11 13:50:48;;;;;;;10.32;7.78;;;;;;;;;;5026888;28;20099;-68
2022/04/11 13:53:14;;;;;;;9.32;8.32;;;;;;;;;;5047668;28;20037;-71
2022/04/11 13:55:40;;;;;;;9.63;7.88;;;;;;;;;;5044982;28;20044;-66
2022/04/11 13:58:05;;;;;;;20.75;9.43;;;;;;;;;;5046123;28;20036;-68
2022/04/11 14:00:32;;;;;;;11.82;8.23;;;;;;;;;;5047019;28;20029;-67
2022/04/11 14:02:58;;;;;;;11.85;8.27;;;;;;;;;;5045978;28;20037;-68
2022/04/11 14:05:24;;;;;;;12.52;8.80;;;;;;;;;;5043229;28;20041;-67
2022/04/11 14:07:50;;;;;;;15.52;8.75;;;;;;;;;;5043966;28;20041;-68
2022/04/11 14:10:17;;;;;;;14.48;9.18;;;;;;;;;;5039518;28;20099;-68
2022/04/11 14:12:43;;;;;;;15.90;9.52;;;;;;;;;;5034621;28;20064;-67
2022/04/11 14:15:09;;;;;;;9.48;8.00;;;;;;;;;;5045990;28;20492;-68
2022/04/11 14:17:35;;;;;;;9.63;8.00;;;;;;;;;;5048250;28;20049;-68
2022/04/11 14:20:01;;;;;;;9.98;8.32;;;;;;;;;;5053382;28;20041;-67
2022/04/11 14:22:27;;;;;;;9.07;8.07;;;;;;;;;;5045484;28;20076;-67
2022/04/11 14:24:53;;;;;;;23.95;11.02;;;;;;;;;;5046869;28;20045;-67
2022/04/11 14:27:19;;;;;;;11.73;9.05;;;;;;;;;;5046774;28;20507;-68
2022/04/11 14:29:45;;;;;;;11.82;8.85;;;;;;;;;;5045558;28;20092;-69
2022/04/11 14:32:11;;;;;;;10.07;8.05;;;;;;;;;;5032343;28;20381;-68
2022/04/11 14:34:37;;;;;;;8.98;8.05;;;;;;;;;;5048833;28;20037;-68
2022/04/11 14:37:03;;;;;;;27.60;11.30;;;;;;;;;;5044848;28;20049;-67